sensor_id;sensor_type;location;lat;lon;timestamp;pressure;altitude;pressure_sealevel;temperature;humidity
10946;BME280;5525;42.648;23.368;2023-04-06T00:02:24;94383.81;;;0.02;100.00
10946;BME280;5525;42.648;23.368;2023-04-06T00:04:52;94391.78;;;0.07;100.00
10946;BME280;5525;42.648;23.368;2023-04-06T00:07:19;94408.25;;;0.04;100.00
10946;BME280;5525;42.648;23.368;2023-04-06T00:09:46;94398.16;;;0.01;100.00
10946;BME280;5525;42.648;23.368;2023-04-06T00:12:12;94385.69;;;-0.04;100.00
10946;BME280;5525;42.648;23.368;2023-04-06T00:14:39;94386.47;;;-0.03;100.00
10946;BME280;5525;42.648;23.368;2023-04-06T00:17:06;94393.13;;;-0.06;100.00
10946;BME280;5525;42.648;23.368;2023-04-06T00:19:34;94404.25;;;-0.09;100.00
10946;BME280;5525;42.648;23.368;2023-04-06T00:22:02;94398.44;;;-0.06;100.00
10946;BME280;5525;42.648;23.368;2023-04-06T00:24:29;94390.75;;;-0.02;100.00
10946;BME280;5525;42.648;23.368;2023-04-06T00:26:55;94388.88;;;-0.07;100.00
10946;BME280;5525;42.648;23.368;2023-04-06T00:29:22;94384.63;;;-0.08;100.00
10946;BME280;5525;42.648;23.368;2023-04-06T00:31:49;94384.09;;;-0.05;100.00
10946;BME280;5525;42.648;23.368;2023-04-06T00:34:16;94387.28;;;-0.08;100.00
10946;BME280;5525;42.648;23.368;2023-04-06T00:36:43;94391.00;;;-0.04;100.00
10946;BME280;5525;42.648;23.368;2023-04-06T00:39:14;94387.00;;;-0.06;100.00
10946;BME280;5525;42.648;23.368;2023-04-06T00:41:46;94378.25;;;-0.12;100.00
10946;BME280;5525;42.648;23.368;2023-04-06T00:44:15;94379.84;;;-0.11;100.00
10946;BME280;5525;42.648;23.368;2023-04-06T00:46:42;94372.13;;;-0.12;100.00
10946;BME280;5525;42.648;23.368;2023-04-06T00:49:09;94369.22;;;-0.06;100.00
10946;BME280;5525;42.648;23.368;2023-04-06T00:51:36;94381.97;;;-0.08;100.00
10946;BME280;5525;42.648;23.368;2023-04-06T00:54:03;94370.03;;;-0.10;100.00
10946;BME280;5525;42.648;23.368;2023-04-06T00:56:31;94366.59;;;-0.06;100.00
10946;BME280;5525;42.648;23.368;2023-04-06T00:58:58;94377.22;;;-0.16;100.00
10946;BME280;5525;42.648;23.368;2023-04-06T01:01:25;94373.19;;;-0.18;100.00
10946;BME280;5525;42.648;23.368;2023-04-06T01:03:53;94368.44;;;-0.21;100.00
10946;BME280;5525;42.648;23.368;2023-04-06T01:06:20;94377.19;;;-0.11;100.00
10946;BME280;5525;42.648;23.368;2023-04-06T01:08:48;94373.22;;;-0.13;100.00
10946;BME280;5525;42.648;23.368;2023-04-06T01:11:14;94363.69;;;-0.14;100.00
10946;BME280;5525;42.648;23.368;2023-04-06T01:13:43;94369.25;;;-0.01;100.00
10946;BME280;5525;42.648;23.368;2023-04-06T01:16:10;94351.19;;;-0.09;100.00
10946;BME280;5525;42.648;23.368;2023-04-06T01:18:37;94364.47;;;-0.04;100.00
10946;BME280;5525;42.648;23.368;2023-04-06T01:21:05;94355.69;;;-0.04;100.00
10946;BME280;5525;42.648;23.368;2023-04-06T01:23:35;94354.91;;;-0.05;100.00
10946;BME280;5525;42.648;23.368;2023-04-06T01:26:02;94361.00;;;-0.04;100.00
10946;BME280;5525;42.648;23.368;2023-04-06T01:28:29;94359.69;;;-0.07;100.00
10946;BME280;5525;42.648;23.368;2023-04-06T01:30:55;94360.72;;;-0.08;100.00
10946;BME280;5525;42.648;23.368;2023-04-06T01:33:22;94361.53;;;-0.07;100.00
10946;BME280;5525;42.648;23.368;2023-04-06T01:35:49;94353.31;;;-0.11;100.00
10946;BME280;5525;42.648;23.368;2023-04-06T01:38:16;94352.00;;;-0.13;100.00
10946;BME280;5525;42.648;23.368;2023-04-06T01:40:44;94354.38;;;-0.02;100.00
10946;BME280;5525;42.648;23.368;2023-04-06T01:43:11;94350.41;;;0.01;100.00
10946;BME280;5525;42.648;23.368;2023-04-06T01:45:38;94357.28;;;0.07;100.00
10946;BME280;5525;42.648;23.368;2023-04-06T01:48:07;94354.09;;;0.10;100.00
10946;BME280;5525;42.648;23.368;2023-04-06T01:50:33;94336.56;;;0.14;100.00
10946;BME280;5525;42.648;23.368;2023-04-06T01:53:00;94348.81;;;0.15;100.00
10946;BME280;5525;42.648;23.368;2023-04-06T01:55:27;94342.41;;;0.16;100.00
10946;BME280;5525;42.648;23.368;2023-04-06T01:57:55;94342.97;;;0.18;100.00
10946;BME280;5525;42.648;23.368;2023-04-06T02:00:22;94337.88;;;0.22;100.00
10946;BME280;5525;42.648;23.368;2023-04-06T02:02:49;94332.34;;;0.18;100.00
10946;BME280;5525;42.648;23.368;2023-04-06T02:05:16;94333.66;;;0.26;100.00
10946;BME280;5525;42.648;23.368;2023-04-06T02:07:43;94326.72;;;0.30;100.00
10946;BME280;5525;42.648;23.368;2023-04-06T02:10:11;94323.81;;;0.31;100.00
10946;BME280;5525;42.648;23.368;2023-04-06T02:12:39;94338.13;;;0.40;100.00
10946;BME280;5525;42.648;23.368;2023-04-06T02:15:08;94339.19;;;0.44;100.00
10946;BME280;5525;42.648;23.368;2023-04-06T02:17:35;94337.31;;;0.50;100.00
10946;BME280;5525;42.648;23.368;2023-04-06T02:20:02;94329.34;;;0.45;100.00
10946;BME280;5525;42.648;23.368;2023-04-06T02:22:29;94328.31;;;0.46;100.00
10946;BME280;5525;42.648;23.368;2023-04-06T02:24:56;94321.38;;;0.50;100.00
10946;BME280;5525;42.648;23.368;2023-04-06T02:27:22;94325.38;;;0.52;100.00
10946;BME280;5525;42.648;23.368;2023-04-06T02:29:49;94328.25;;;0.56;100.00
10946;BME280;5525;42.648;23.368;2023-04-06T02:32:17;94333.31;;;0.57;100.00
10946;BME280;5525;42.648;23.368;2023-04-06T02:34:44;94323.22;;;0.59;100.00
10946;BME280;5525;42.648;23.368;2023-04-06T02:37:11;94319.78;;;0.54;100.00
10946;BME280;5525;42.648;23.368;2023-04-06T02:39:38;94329.06;;;0.56;100.00
10946;BME280;5525;42.648;23.368;2023-04-06T02:42:05;94333.31;;;0.57;100.00
10946;BME280;5525;42.648;23.368;2023-04-06T02:44:32;94329.59;;;0.58;100.00
10946;BME280;5525;42.648;23.368;2023-04-06T02:46:58;94324.03;;;0.50;100.00
10946;BME280;5525;42.648;23.368;2023-04-06T02:49:27;94335.69;;;0.59;100.00
10946;BME280;5525;42.648;23.368;2023-04-06T02:51:53;94328.25;;;0.61;100.00
10946;BME280;5525;42.648;23.368;2023-04-06T02:54:20;94324.56;;;0.57;100.00
10946;BME280;5525;42.648;23.368;2023-04-06T02:56:47;94323.22;;;0.59;100.00
10946;BME280;5525;42.648;23.368;2023-04-06T02:59:14;94323.22;;;0.54;100.00
10946;BME280;5525;42.648;23.368;2023-04-06T03:01:41;94320.84;;;0.53;100.00
10946;BME280;5525;42.648;23.368;2023-04-06T03:04:07;94321.66;;;0.48;100.00
10946;BME280;5525;42.648;23.368;2023-04-06T03:06:36;94319.78;;;0.49;100.00
10946;BME280;5525;42.648;23.368;2023-04-06T03:09:03;94318.44;;;0.51;100.00
10946;BME280;5525;42.648;23.368;2023-04-06T03:11:30;94314.50;;;0.49;100.00
10946;BME280;5525;42.648;23.368;2023-04-06T03:13:57;94326.69;;;0.45;100.00
10946;BME280;5525;42.648;23.368;2023-04-06T03:16:24;94316.09;;;0.40;100.00
10946;BME280;5525;42.648;23.368;2023-04-06T03:18:51;94313.19;;;0.41;100.00
10946;BME280;5525;42.648;23.368;2023-04-06T03:21:18;94305.47;;;0.40;100.00
10946;BME280;5525;42.648;23.368;2023-04-06T03:23:47;94314.75;;;0.42;100.00
10946;BME280;5525;42.648;23.368;2023-04-06T03:26:15;94316.38;;;0.33;100.00
10946;BME280;5525;42.648;23.368;2023-04-06T03:28:42;94313.44;;;0.40;100.00
10946;BME280;5525;42.648;23.368;2023-04-06T03:31:09;94310.78;;;0.40;100.00
10946;BME280;5525;42.648;23.368;2023-04-06T03:33:36;94311.06;;;0.38;100.00
10946;BME280;5525;42.648;23.368;2023-04-06T03:36:03;94309.72;;;0.41;100.00
10946;BME280;5525;42.648;23.368;2023-04-06T03:38:30;94312.38;;;0.41;100.00
10946;BME280;5525;42.648;23.368;2023-04-06T03:40:58;94314.22;;;0.45;100.00
10946;BME280;5525;42.648;23.368;2023-04-06T03:43:25;94305.47;;;0.40;100.00
10946;BME280;5525;42.648;23.368;2023-04-06T03:45:52;94323.53;;;0.43;100.00
10946;BME280;5525;42.648;23.368;2023-04-06T03:48:19;94313.41;;;0.45;100.00
10946;BME280;5525;42.648;23.368;2023-04-06T03:50:46;94304.69;;;0.44;100.00
10946;BME280;5525;42.648;23.368;2023-04-06T03:53:12;94306.53;;;0.44;100.00
10946;BME280;5525;42.648;23.368;2023-04-06T03:55:39;94311.84;;;0.49;100.00
10946;BME280;5525;42.648;23.368;2023-04-06T03:58:07;94306.25;;;0.45;100.00
10946;BME280;5525;42.648;23.368;2023-04-06T04:00:34;94305.19;;;0.46;100.00
10946;BME280;5525;42.648;23.368;2023-04-06T04:03:01;94297.47;;;0.45;100.00
10946;BME280;5525;42.648;23.368;2023-04-06T04:05:28;94308.09;;;0.50;100.00
10946;BME280;5525;42.648;23.368;2023-04-06T04:07:55;94289.50;;;0.50;100.00
10946;BME280;5525;42.648;23.368;2023-04-06T04:10:21;94299.63;;;0.48;100.00
10946;BME280;5525;42.648;23.368;2023-04-06T04:12:48;94314.97;;;0.56;100.00
10946;BME280;5525;42.648;23.368;2023-04-06T04:15:17;94311.78;;;0.59;100.00
10946;BME280;5525;42.648;23.368;2023-04-06T04:17:43;94299.59;;;0.58;100.00
10946;BME280;5525;42.648;23.368;2023-04-06T04:20:12;94303.00;;;0.63;100.00
10946;BME280;5525;42.648;23.368;2023-04-06T04:22:39;94305.66;;;0.63;100.00
10946;BME280;5525;42.648;23.368;2023-04-06T04:25:06;94302.72;;;0.65;100.00
10946;BME280;5525;42.648;23.368;2023-04-06T04:27:33;94307.75;;;0.71;100.00
10946;BME280;5525;42.648;23.368;2023-04-06T04:29:59;94316.00;;;0.75;100.00
10946;BME280;5525;42.648;23.368;2023-04-06T04:32:28;94315.44;;;0.78;100.00
10946;BME280;5525;42.648;23.368;2023-04-06T04:34:55;94309.06;;;0.79;100.00
10946;BME280;5525;42.648;23.368;2023-04-06T04:37:21;94319.69;;;0.79;100.00
10946;BME280;5525;42.648;23.368;2023-04-06T04:39:48;94310.91;;;0.83;100.00
10946;BME280;5525;42.648;23.368;2023-04-06T04:42:15;94317.25;;;0.92;100.00
10946;BME280;5525;42.648;23.368;2023-04-06T04:44:42;94304.00;;;0.87;100.00
10946;BME280;5525;42.648;23.368;2023-04-06T04:47:09;94308.50;;;0.92;100.00
10946;BME280;5525;42.648;23.368;2023-04-06T04:49:37;94313.78;;;0.97;100.00
10946;BME280;5525;42.648;23.368;2023-04-06T04:52:04;94312.69;;;1.03;100.00
10946;BME280;5525;42.648;23.368;2023-04-06T04:54:30;94317.50;;;0.96;100.00
10946;BME280;5525;42.648;23.368;2023-04-06T04:56:57;94306.09;;;0.95;100.00
10946;BME280;5525;42.648;23.368;2023-04-06T04:59:24;94314.84;;;0.96;100.00
10946;BME280;5525;42.648;23.368;2023-04-06T05:01:51;94320.97;;;0.96;100.00
10946;BME280;5525;42.648;23.368;2023-04-06T05:04:18;94322.31;;;0.94;100.00
10946;BME280;5525;42.648;23.368;2023-04-06T05:06:47;94313.25;;;0.95;100.00
10946;BME280;5525;42.648;23.368;2023-04-06T05:09:14;94312.16;;;1.01;100.00
10946;BME280;5525;42.648;23.368;2023-04-06T05:11:40;94311.34;;;1.00;100.00
10946;BME280;5525;42.648;23.368;2023-04-06T05:14:07;94311.88;;;1.02;100.00
10946;BME280;5525;42.648;23.368;2023-04-06T05:16:34;94316.94;;;1.04;100.00
10946;BME280;5525;42.648;23.368;2023-04-06T05:19:01;94323.56;;;1.06;100.00
10946;BME280;5525;42.648;23.368;2023-04-06T05:21:28;94318.47;;;1.15;100.00
10946;BME280;5525;42.648;23.368;2023-04-06T05:23:56;94314.53;;;1.07;100.00
10946;BME280;5525;42.648;23.368;2023-04-06T05:26:23;94325.66;;;1.14;100.00
10946;BME280;5525;42.648;23.368;2023-04-06T05:28:50;94329.13;;;1.15;100.00
10946;BME280;5525;42.648;23.368;2023-04-06T05:31:17;94324.00;;;1.23;100.00
10946;BME280;5525;42.648;23.368;2023-04-06T05:33:44;94330.13;;;1.24;100.00
10946;BME280;5525;42.648;23.368;2023-04-06T05:36:11;94329.84;;;1.30;100.00
10946;BME280;5525;42.648;23.368;2023-04-06T05:38:38;94332.22;;;1.32;100.00
10946;BME280;5525;42.648;23.368;2023-04-06T05:41:09;94322.34;;;1.32;100.00
10946;BME280;5525;42.648;23.368;2023-04-06T05:43:36;94328.72;;;1.41;100.00
10946;BME280;5525;42.648;23.368;2023-04-06T05:46:03;94318.31;;;1.40;100.00
10946;BME280;5525;42.648;23.368;2023-04-06T05:48:30;94331.13;;;1.33;100.00
10946;BME280;5525;42.648;23.368;2023-04-06T05:50:57;94315.88;;;1.48;100.00
10946;BME280;5525;42.648;23.368;2023-04-06T05:53:25;94324.84;;;1.62;100.00
10946;BME280;5525;42.648;23.368;2023-04-06T05:55:51;94317.88;;;1.66;100.00
10946;BME280;5525;42.648;23.368;2023-04-06T05:58:20;94316.94;;;1.86;100.00
10946;BME280;5525;42.648;23.368;2023-04-06T06:00:46;94312.91;;;1.94;100.00
10946;BME280;5525;42.648;23.368;2023-04-06T06:03:13;94313.66;;;1.99;100.00
10946;BME280;5525;42.648;23.368;2023-04-06T06:05:40;94318.63;;;2.11;100.00
10946;BME280;5525;42.648;23.368;2023-04-06T06:08:07;94314.06;;;2.11;100.00
10946;BME280;5525;42.648;23.368;2023-04-06T06:10:34;94311.06;;;2.23;100.00
10946;BME280;5525;42.648;23.368;2023-04-06T06:13:01;94315.25;;;2.29;100.00
10946;BME280;5525;42.648;23.368;2023-04-06T06:15:29;94315.53;;;2.27;100.00
10946;BME280;5525;42.648;23.368;2023-04-06T06:17:56;94314.22;;;2.25;100.00
10946;BME280;5525;42.648;23.368;2023-04-06T06:20:22;94310.38;;;2.36;100.00
10946;BME280;5525;42.648;23.368;2023-04-06T06:22:49;94293.63;;;2.59;100.00
10946;BME280;5525;42.648;23.368;2023-04-06T06:25:16;94312.16;;;2.92;100.00
10946;BME280;5525;42.648;23.368;2023-04-06T06:27:43;94308.47;;;2.65;100.00
10946;BME280;5525;42.648;23.368;2023-04-06T06:30:10;94306.56;;;2.70;100.00
10946;BME280;5525;42.648;23.368;2023-04-06T06:32:38;94308.34;;;2.98;100.00
10946;BME280;5525;42.648;23.368;2023-04-06T06:35:06;94298.84;;;3.34;100.00
10946;BME280;5525;42.648;23.368;2023-04-06T06:37:32;94294.72;;;4.11;100.00
10946;BME280;5525;42.648;23.368;2023-04-06T06:39:59;94295.63;;;5.20;100.00
10946;BME280;5525;42.648;23.368;2023-04-06T06:42:26;94295.41;;;7.80;94.50
10946;BME280;5525;42.648;23.368;2023-04-06T06:44:54;94296.09;;;8.19;83.78
10946;BME280;5525;42.648;23.368;2023-04-06T06:47:20;94297.84;;;9.33;71.50
10946;BME280;5525;42.648;23.368;2023-04-06T06:49:49;94302.63;;;6.58;78.82
10946;BME280;5525;42.648;23.368;2023-04-06T06:52:15;94307.16;;;8.01;82.12
10946;BME280;5525;42.648;23.368;2023-04-06T06:54:42;94303.84;;;10.17;66.56
10946;BME280;5525;42.648;23.368;2023-04-06T06:57:09;94297.22;;;10.80;63.22
10946;BME280;5525;42.648;23.368;2023-04-06T06:59:36;94304.44;;;11.69;56.38
10946;BME280;5525;42.648;23.368;2023-04-06T07:02:03;94314.09;;;11.34;56.22
10946;BME280;5525;42.648;23.368;2023-04-06T07:04:30;94295.88;;;11.67;53.82
10946;BME280;5525;42.648;23.368;2023-04-06T07:06:58;94289.97;;;11.17;55.58
10946;BME280;5525;42.648;23.368;2023-04-06T07:09:25;94285.91;;;12.19;54.34
10946;BME280;5525;42.648;23.368;2023-04-06T07:11:52;94287.09;;;14.32;48.70
10946;BME280;5525;42.648;23.368;2023-04-06T07:14:19;94286.66;;;13.96;46.71
10946;BME280;5525;42.648;23.368;2023-04-06T07:16:46;94298.09;;;14.96;44.41
10946;BME280;5525;42.648;23.368;2023-04-06T07:19:14;94287.09;;;14.89;42.92
10946;BME280;5525;42.648;23.368;2023-04-06T07:21:41;94294.03;;;14.49;41.71
10946;BME280;5525;42.648;23.368;2023-04-06T07:24:09;94290.59;;;15.32;41.38
10946;BME280;5525;42.648;23.368;2023-04-06T07:26:36;94289.25;;;16.42;38.73
10946;BME280;5525;42.648;23.368;2023-04-06T07:29:03;94291.16;;;14.99;40.72
10946;BME280;5525;42.648;23.368;2023-04-06T07:31:29;94300.78;;;11.17;44.70
10946;BME280;5525;42.648;23.368;2023-04-06T07:33:56;94305.41;;;9.40;51.57
10946;BME280;5525;42.648;23.368;2023-04-06T07:36:23;94305.25;;;9.94;55.09
10946;BME280;5525;42.648;23.368;2023-04-06T07:38:50;94288.63;;;13.64;45.54
10946;BME280;5525;42.648;23.368;2023-04-06T07:41:18;94297.69;;;13.72;43.89
10946;BME280;5525;42.648;23.368;2023-04-06T07:43:45;94262.34;;;12.08;45.81
10946;BME280;5525;42.648;23.368;2023-04-06T07:46:11;94281.47;;;13.25;43.75
10946;BME280;5525;42.648;23.368;2023-04-06T07:48:38;94280.47;;;13.02;43.98
10946;BME280;5525;42.648;23.368;2023-04-06T07:51:07;94294.66;;;14.42;42.34
10946;BME280;5525;42.648;23.368;2023-04-06T07:53:35;94287.03;;;13.79;42.31
10946;BME280;5525;42.648;23.368;2023-04-06T07:56:02;94290.41;;;12.98;43.44
10946;BME280;5525;42.648;23.368;2023-04-06T07:58:30;94288.97;;;13.63;42.47
10946;BME280;5525;42.648;23.368;2023-04-06T08:00:57;94296.75;;;14.30;42.17
10946;BME280;5525;42.648;23.368;2023-04-06T08:03:24;94291.09;;;14.76;40.25
10946;BME280;5525;42.648;23.368;2023-04-06T08:05:52;94292.56;;;14.51;40.82
10946;BME280;5525;42.648;23.368;2023-04-06T08:08:19;94280.53;;;14.18;41.49
10946;BME280;5525;42.648;23.368;2023-04-06T08:10:46;94293.66;;;14.88;41.51
10946;BME280;5525;42.648;23.368;2023-04-06T08:13:13;94291.03;;;16.05;38.84
10946;BME280;5525;42.648;23.368;2023-04-06T08:15:41;94290.53;;;15.73;38.10
10946;BME280;5525;42.648;23.368;2023-04-06T08:18:09;94279.53;;;14.41;38.88
10946;BME280;5525;42.648;23.368;2023-04-06T08:20:35;94285.41;;;15.04;38.25
10946;BME280;5525;42.648;23.368;2023-04-06T08:23:02;94289.81;;;15.76;38.52
10946;BME280;5525;42.648;23.368;2023-04-06T08:25:29;94286.75;;;14.72;39.45
10946;BME280;5525;42.648;23.368;2023-04-06T08:27:56;94291.50;;;12.54;43.48
10946;BME280;5525;42.648;23.368;2023-04-06T08:30:23;94289.59;;;14.06;41.28
10946;BME280;5525;42.648;23.368;2023-04-06T08:32:51;94299.91;;;13.35;42.42
10946;BME280;5525;42.648;23.368;2023-04-06T08:35:18;94297.50;;;13.02;43.57
10946;BME280;5525;42.648;23.368;2023-04-06T08:37:44;94290.91;;;12.88;42.46
10946;BME280;5525;42.648;23.368;2023-04-06T08:40:12;94284.06;;;12.78;44.20
10946;BME280;5525;42.648;23.368;2023-04-06T08:42:44;94287.84;;;15.99;37.43
10946;BME280;5525;42.648;23.368;2023-04-06T08:45:16;94295.34;;;14.74;37.57
10946;BME280;5525;42.648;23.368;2023-04-06T08:47:43;94294.06;;;13.33;39.87
10946;BME280;5525;42.648;23.368;2023-04-06T08:50:11;94291.31;;;15.28;36.80
10946;BME280;5525;42.648;23.368;2023-04-06T08:52:38;94272.19;;;13.26;38.98
10946;BME280;5525;42.648;23.368;2023-04-06T08:55:07;94295.03;;;12.97;40.27
10946;BME280;5525;42.648;23.368;2023-04-06T08:57:36;94282.34;;;16.22;35.36
10946;BME280;5525;42.648;23.368;2023-04-06T09:00:03;94291.19;;;14.42;37.67
10946;BME280;5525;42.648;23.368;2023-04-06T09:02:30;94291.22;;;15.02;36.08
10946;BME280;5525;42.648;23.368;2023-04-06T09:04:57;94291.25;;;14.45;37.26
10946;BME280;5525;42.648;23.368;2023-04-06T09:07:26;94291.47;;;16.36;33.48
10946;BME280;5525;42.648;23.368;2023-04-06T09:09:54;94283.84;;;13.92;37.40
10946;BME280;5525;42.648;23.368;2023-04-06T09:12:25;94277.34;;;15.07;35.68
10946;BME280;5525;42.648;23.368;2023-04-06T09:14:53;94277.31;;;15.98;34.91
10946;BME280;5525;42.648;23.368;2023-04-06T09:17:21;94276.25;;;15.12;36.08
10946;BME280;5525;42.648;23.368;2023-04-06T09:19:48;94285.47;;;15.27;35.97
10946;BME280;5525;42.648;23.368;2023-04-06T09:22:15;94277.56;;;17.04;34.11
10946;BME280;5525;42.648;23.368;2023-04-06T09:24:45;94274.53;;;16.79;33.99
10946;BME280;5525;42.648;23.368;2023-04-06T09:27:12;94271.56;;;16.03;34.46
10946;BME280;5525;42.648;23.368;2023-04-06T09:29:39;94279.16;;;15.22;35.37
10946;BME280;5525;42.648;23.368;2023-04-06T09:32:07;94270.22;;;15.90;35.99
10946;BME280;5525;42.648;23.368;2023-04-06T09:34:37;94272.38;;;14.52;35.46
10946;BME280;5525;42.648;23.368;2023-04-06T09:37:13;94278.66;;;14.94;36.01
10946;BME280;5525;42.648;23.368;2023-04-06T09:39:40;94257.22;;;13.16;38.95
10946;BME280;5525;42.648;23.368;2023-04-06T09:42:08;94280.66;;;15.62;35.83
10946;BME280;5525;42.648;23.368;2023-04-06T09:44:35;94266.78;;;14.26;37.38
10946;BME280;5525;42.648;23.368;2023-04-06T09:47:06;94256.34;;;16.54;34.50
10946;BME280;5525;42.648;23.368;2023-04-06T09:49:33;94268.25;;;14.77;35.65
10946;BME280;5525;42.648;23.368;2023-04-06T09:52:02;94275.16;;;14.37;36.42
10946;BME280;5525;42.648;23.368;2023-04-06T09:54:30;94273.41;;;15.05;35.99
10946;BME280;5525;42.648;23.368;2023-04-06T09:57:05;94252.97;;;15.14;35.28
10946;BME280;5525;42.648;23.368;2023-04-06T09:59:40;94243.66;;;14.51;36.28
10946;BME280;5525;42.648;23.368;2023-04-06T10:02:15;94272.41;;;13.83;36.65
10946;BME280;5525;42.648;23.368;2023-04-06T10:04:51;94272.03;;;14.54;35.05
10946;BME280;5525;42.648;23.368;2023-04-06T10:07:20;94255.97;;;12.55;38.49
10946;BME280;5525;42.648;23.368;2023-04-06T10:09:48;94278.41;;;13.92;37.51
10946;BME280;5525;42.648;23.368;2023-04-06T10:12:16;94276.38;;;14.77;35.78
10946;BME280;5525;42.648;23.368;2023-04-06T10:14:44;94255.16;;;14.45;36.37
10946;BME280;5525;42.648;23.368;2023-04-06T10:17:11;94269.13;;;13.93;37.00
10946;BME280;5525;42.648;23.368;2023-04-06T10:19:42;94260.72;;;15.12;34.27
10946;BME280;5525;42.648;23.368;2023-04-06T10:22:18;94270.16;;;15.18;34.47
10946;BME280;5525;42.648;23.368;2023-04-06T10:24:48;94258.00;;;15.58;34.63
10946;BME280;5525;42.648;23.368;2023-04-06T10:27:15;94251.72;;;16.95;32.21
10946;BME280;5525;42.648;23.368;2023-04-06T10:29:45;94282.66;;;15.91;33.74
10946;BME280;5525;42.648;23.368;2023-04-06T10:32:12;94264.88;;;14.46;34.47
10946;BME280;5525;42.648;23.368;2023-04-06T10:34:39;94253.06;;;15.89;33.04
10946;BME280;5525;42.648;23.368;2023-04-06T10:37:13;94259.59;;;15.59;33.09
10946;BME280;5525;42.648;23.368;2023-04-06T10:39:47;94264.78;;;14.80;35.02
10946;BME280;5525;42.648;23.368;2023-04-06T10:42:14;94255.69;;;14.92;33.82
10946;BME280;5525;42.648;23.368;2023-04-06T10:44:45;94261.59;;;14.56;33.94
10946;BME280;5525;42.648;23.368;2023-04-06T10:47:16;94269.22;;;13.31;36.31
10946;BME280;5525;42.648;23.368;2023-04-06T10:49:44;94273.00;;;14.84;34.52
10946;BME280;5525;42.648;23.368;2023-04-06T10:52:11;94262.25;;;13.80;35.47
10946;BME280;5525;42.648;23.368;2023-04-06T10:54:41;94272.91;;;15.41;34.55
10946;BME280;5525;42.648;23.368;2023-04-06T10:57:09;94264.38;;;12.66;37.08
10946;BME280;5525;42.648;23.368;2023-04-06T10:59:36;94264.13;;;12.71;38.22
10946;BME280;5525;42.648;23.368;2023-04-06T11:02:04;94263.81;;;12.05;39.74
10946;BME280;5525;42.648;23.368;2023-04-06T11:04:31;94256.75;;;12.01;38.98
10946;BME280;5525;42.648;23.368;2023-04-06T11:06:58;94272.88;;;11.13;40.70
10946;BME280;5525;42.648;23.368;2023-04-06T11:09:25;94254.19;;;11.20;41.26
10946;BME280;5525;42.648;23.368;2023-04-06T11:11:52;94265.69;;;11.53;41.01
10946;BME280;5525;42.648;23.368;2023-04-06T11:14:20;94262.59;;;11.90;40.76
10946;BME280;5525;42.648;23.368;2023-04-06T11:16:47;94257.88;;;12.27;40.35
10946;BME280;5525;42.648;23.368;2023-04-06T11:19:16;94260.38;;;11.56;40.38
10946;BME280;5525;42.648;23.368;2023-04-06T11:21:44;94269.53;;;10.39;42.05
10946;BME280;5525;42.648;23.368;2023-04-06T11:24:14;94258.69;;;10.59;42.28
10946;BME280;5525;42.648;23.368;2023-04-06T11:26:43;94254.97;;;10.52;42.77
10946;BME280;5525;42.648;23.368;2023-04-06T11:29:12;94252.00;;;10.89;42.47
10946;BME280;5525;42.648;23.368;2023-04-06T11:31:40;94255.25;;;9.97;45.41
10946;BME280;5525;42.648;23.368;2023-04-06T11:34:11;94246.19;;;9.81;46.41
10946;BME280;5525;42.648;23.368;2023-04-06T11:36:41;94257.31;;;9.50;47.51
10946;BME280;5525;42.648;23.368;2023-04-06T11:39:09;94242.72;;;9.80;47.09
10946;BME280;5525;42.648;23.368;2023-04-06T11:41:36;94243.22;;;9.94;46.49
10946;BME280;5525;42.648;23.368;2023-04-06T11:44:03;94242.97;;;9.09;48.46
10946;BME280;5525;42.648;23.368;2023-04-06T11:46:30;94243.94;;;9.33;48.13
10946;BME280;5525;42.648;23.368;2023-04-06T11:48:58;94247.25;;;9.10;48.78
10946;BME280;5525;42.648;23.368;2023-04-06T11:51:25;94238.09;;;8.73;49.71
10946;BME280;5525;42.648;23.368;2023-04-06T11:53:54;94239.22;;;8.64;50.72
10946;BME280;5525;42.648;23.368;2023-04-06T11:56:25;94240.25;;;7.99;54.80
10946;BME280;5525;42.648;23.368;2023-04-06T11:58:54;94238.50;;;8.03;54.88
10946;BME280;5525;42.648;23.368;2023-04-06T12:01:21;94242.78;;;8.04;53.42
10946;BME280;5525;42.648;23.368;2023-04-06T12:03:48;94241.84;;;7.75;54.36
10946;BME280;5525;42.648;23.368;2023-04-06T12:06:15;94241.66;;;7.37;56.21
10946;BME280;5525;42.648;23.368;2023-04-06T12:08:41;94238.03;;;7.67;57.68
10946;BME280;5525;42.648;23.368;2023-04-06T12:11:09;94237.22;;;7.41;59.45
10946;BME280;5525;42.648;23.368;2023-04-06T12:13:36;94249.53;;;7.34;59.48
10946;BME280;5525;42.648;23.368;2023-04-06T12:16:03;94243.31;;;7.08;60.85
10946;BME280;5525;42.648;23.368;2023-04-06T12:18:30;94242.84;;;6.58;61.39
10946;BME280;5525;42.648;23.368;2023-04-06T12:20:57;94244.97;;;6.78;62.81
10946;BME280;5525;42.648;23.368;2023-04-06T12:23:23;94241.66;;;6.81;64.01
10946;BME280;5525;42.648;23.368;2023-04-06T12:25:50;94235.44;;;6.63;65.43
10946;BME280;5525;42.648;23.368;2023-04-06T12:28:18;94232.88;;;6.58;67.44
10946;BME280;5525;42.648;23.368;2023-04-06T12:30:48;94232.94;;;6.36;68.43
10946;BME280;5525;42.648;23.368;2023-04-06T12:33:15;94235.66;;;6.45;70.42
10946;BME280;5525;42.648;23.368;2023-04-06T12:35:42;94231.38;;;6.74;68.73
10946;BME280;5525;42.648;23.368;2023-04-06T12:38:09;94219.13;;;6.51;67.27
10946;BME280;5525;42.648;23.368;2023-04-06T12:40:36;94238.16;;;6.41;68.28
10946;BME280;5525;42.648;23.368;2023-04-06T12:43:03;94230.13;;;6.41;67.70
10946;BME280;5525;42.648;23.368;2023-04-06T12:45:31;94226.66;;;6.41;67.41
10946;BME280;5525;42.648;23.368;2023-04-06T12:47:58;94224.34;;;6.26;68.50
10946;BME280;5525;42.648;23.368;2023-04-06T12:50:25;94231.13;;;6.01;70.54
10946;BME280;5525;42.648;23.368;2023-04-06T12:52:52;94232.94;;;5.84;71.01
10946;BME280;5525;42.648;23.368;2023-04-06T12:55:18;94221.50;;;5.92;71.38
10946;BME280;5525;42.648;23.368;2023-04-06T12:57:46;94220.84;;;5.73;72.49
10946;BME280;5525;42.648;23.368;2023-04-06T13:00:13;94222.00;;;5.80;73.32
10946;BME280;5525;42.648;23.368;2023-04-06T13:02:41;94208.16;;;5.65;72.61